Palmerston, Tasmania

8:59 PM EST on August 21, 2014 (GMT +1000)
Lower Coal Valley | Change Station
CLOSE
Current Station
Personal Weather Station
Location: Richmond, TASMANIA
Elevation: 85 ft
Nearby Weather Stations

Elev 85 ft 42.71 °S, 147.45 °E | Updated 3 seconds ago

Partly Cloudy
Partly Cloudy
40.5 °F
Feels Like 40 °F
N
1.6
Wind Variable Wind from East
Gusts 2.2 mph

Today
High -- | Low -- °F
--% Chance of Precip.
Yesterday
High -- | Low -- °F
Precip. -- in
6:55 AM 5:32 PM
Waning Crescent, 15% visible
Pressure 30.51 in
Visibility 6.2 miles
Clouds Few 2000 ft
Windchill 40 °F
Dew Point 37 °F
Humidity 87%
Rainfall 0.00 in
Snow Depth Not available.
UV 0 out of 12
Pollen Not available.
Air Quality Not available.
Flu Activity Not available.
METAR YMHB 211030Z 00000KT 9999 FEW020 08/06 Q1033

More Conditions Fewer Conditions

Pressure 30.51 in
Visibility 6.2 miles
Clouds Few 2000 ft
Windchill 40 °F
Dew Point 37 °F
Humidity 87%
Rainfall 0.00 in
Snow Depth Not available.
UV 0 out of 12
Pollen Not available.
Air Quality Not available.
Flu Activity Not available.
METAR YMHB 211030Z 00000KT 9999 FEW020 08/06 Q1033

More Conditions Fewer Conditions

10-Day Weather Forecast

Almanac

Astronomy

Aug. 21, 2014 Rise Set
Actual Time 6:55 AM EST 5:32 PM EST
Civil Twilight 6:26 AM EST 6:01 PM EST
Nautical Twilight 5:53 AM EST 6:34 PM EST
Astronomical Twilight 5:20 AM EST 7:07 PM EST
Moon 3:45 AM EST 1:41 PM EST
Length of Visible Light 11h 35m
Length of Day
10h 37m
Tomorrow will be 2m 35s longer.
Waning Crescent, 15% of the Moon is Illuminated
Today
Waning Crescent
Aug 25
New
Sep 2
First Quarter
Sep 8
Full
Sep 15
Last Quarter

Yesterday's Extremes

Country Highs Country Lows

Community

WunderPhotos

Upload Photos

1,745,871 photos uploaded!

Nearby

Snow Depth

Not available.

Earthquake Activity

City Distance Mag. Time & Date
No recent earthquake activity has been reported nearby.
Minimum magnitude displayed is 2.5.

Coastal Water Temperatures

Place Temperature
No Stations Reporting

Nearby Weather Stations